Time;durP1;ratioP1;P1;durP2;ratioP2;P2;SDS_P1;SDS_P2;PMS_P1;PMS_P2;Temp;Humidity;BMP_temperature;BMP_pressure;BME280_temperature;BME280_humidity;BME280_pressure;Samples;Min_cycle;Max_cycle;Signal;HPM_P1;HPM_P2
2022/09/04 00:02:30;;;;;;;8.65;1.90;;;18.30;62.10;;;;;;5105925;27;36531;-57
2022/09/04 00:05:04;;;;;;;4.35;1.35;;;18.30;62.40;;;;;;5107067;27;37928;-57
2022/09/04 00:07:39;;;;;;;5.40;1.48;;;18.30;62.50;;;;;;5105874;27;37799;-57
2022/09/04 00:10:15;;;;;;;4.43;1.58;;;18.30;62.60;;;;;;5107081;27;36606;-57
2022/09/04 00:12:48;;;;;;;3.58;1.23;;;18.20;62.60;;;;;;5106341;27;37368;-57
2022/09/04 00:15:20;;;;;;;4.63;1.20;;;18.20;62.90;;;;;;5107269;27;37748;-58
2022/09/04 00:17:54;;;;;;;5.57;1.63;;;18.20;63.10;;;;;;5106829;27;38108;-57
2022/09/04 00:20:32;;;;;;;5.80;1.30;;;18.10;63.40;;;;;;5106712;27;37604;-57
2022/09/04 00:23:06;;;;;;;5.50;1.38;;;18.10;63.60;;;;;;5106287;27;36693;-57
2022/09/04 00:25:43;;;;;;;3.90;1.52;;;18.10;63.80;;;;;;5106208;27;37435;-57
2022/09/04 00:28:19;;;;;;;4.45;1.70;;;18.00;63.90;;;;;;5106986;27;37789;-57
2022/09/04 00:30:56;;;;;;;4.53;1.23;;;18.10;64.10;;;;;;5105170;27;36140;-57
2022/09/04 00:33:33;;;;;;;4.97;1.60;;;18.00;64.10;;;;;;5105799;27;36823;-57
2022/09/04 00:36:03;;;;;;;5.20;1.52;;;18.00;64.20;;;;;;5106926;27;37641;-57
2022/09/04 00:38:41;;;;;;;4.47;1.40;;;17.90;64.30;;;;;;5106892;27;36500;-57
2022/09/04 00:41:18;;;;;;;7.82;1.52;;;17.90;64.50;;;;;;5106382;27;37912;-57
2022/09/04 00:44:22;;;;;;;5.80;1.40;;;17.90;64.70;;;;;;5105737;27;35245;-57
2022/09/04 00:47:08;;;;;;;7.72;1.63;;;17.90;65.30;;;;;;5105999;27;38617;-57
2022/09/04 00:49:49;;;;;;;4.38;1.40;;;17.80;65.60;;;;;;5105450;27;37723;-57
2022/09/04 00:52:32;;;;;;;6.47;1.88;;;17.70;65.80;;;;;;5105396;27;37767;-57
2022/09/04 00:55:15;;;;;;;5.47;1.42;;;17.70;66.20;;;;;;5104868;27;36449;-57
2022/09/04 00:58:04;;;;;;;5.90;1.52;;;17.60;66.40;;;;;;5106686;27;37523;-57
2022/09/04 01:00:31;;;;;;;5.90;1.40;;;17.60;66.70;;;;;;5107630;27;37894;-57
2022/09/04 01:03:23;;;;;;;5.05;1.67;;;17.60;66.90;;;;;;5106983;27;38025;-57
2022/09/04 01:06:03;;;;;;;3.28;1.20;;;17.60;67.30;;;;;;5107263;27;36457;-57
2022/09/04 01:08:42;;;;;;;7.10;1.75;;;17.50;67.40;;;;;;5105252;27;37424;-57
2022/09/04 01:11:21;;;;;;;3.55;1.20;;;17.50;67.60;;;;;;5105240;27;38246;-57
2022/09/04 01:13:58;;;;;;;5.68;1.52;;;17.50;67.70;;;;;;5105947;27;36921;-57
2022/09/04 01:16:28;;;;;;;3.78;1.40;;;17.50;67.70;;;;;;5106805;27;36544;-57
2022/09/04 01:19:01;;;;;;;4.80;1.80;;;17.50;67.70;;;;;;5106077;27;39012;-57
2022/09/04 01:22:11;;;;;;;3.08;1.33;;;17.50;68.00;;;;;;5106180;27;39088;-57
2022/09/04 01:25:04;;;;;;;6.53;1.70;;;17.50;68.10;;;;;;5082527;27;37605;-57
2022/09/04 01:27:40;;;;;;;3.95;1.30;;;17.50;68.30;;;;;;5105368;27;37362;-57
2022/09/04 01:30:10;;;;;;;4.97;1.40;;;17.50;68.40;;;;;;5106193;27;37111;-57
2022/09/04 01:32:48;;;;;;;6.05;1.60;;;17.50;68.60;;;;;;5106296;27;37800;-57
2022/09/04 01:35:25;;;;;;;8.30;1.52;;;17.40;69.00;;;;;;5105543;27;37433;-57
2022/09/04 01:38:02;;;;;;;3.65;1.40;;;17.40;69.10;;;;;;5106005;27;35103;-57
2022/09/04 01:40:38;;;;;;;2.47;1.20;;;17.40;69.40;;;;;;5105368;27;35641;-57
2022/09/04 01:43:10;;;;;;;4.97;1.83;;;17.40;69.70;;;;;;5103624;27;38582;-57
2022/09/04 01:45:55;;;;;;;5.30;1.40;;;17.30;69.90;;;;;;5105407;27;37797;-57
2022/09/04 01:48:31;;;;;;;5.07;1.90;;;17.30;70.40;;;;;;5101833;27;36450;-57
2022/09/04 01:51:05;;;;;;;4.40;1.90;;;17.20;70.40;;;;;;5102973;27;38017;-57
2022/09/04 01:53:38;;;;;;;3.85;1.50;;;17.20;70.50;;;;;;5099752;27;38317;-57
2022/09/04 01:56:11;;;;;;;7.93;1.83;;;17.20;70.60;;;;;;5102808;27;39119;-57
2022/09/04 01:58:47;;;;;;;6.10;1.65;;;17.20;70.90;;;;;;5099410;27;37142;-57
2022/09/04 02:01:24;;;;;;;3.80;1.55;;;17.20;71.10;;;;;;5103057;27;37146;-57
2022/09/04 02:04:00;;;;;;;7.35;1.83;;;17.20;71.10;;;;;;5102550;27;37932;-57
2022/09/04 02:06:38;;;;;;;5.97;1.50;;;17.20;71.30;;;;;;5103884;27;37151;-57
2022/09/04 02:09:19;;;;;;;5.18;1.88;;;17.10;71.40;;;;;;5103235;27;36647;-57
2022/09/04 02:11:52;;;;;;;3.50;1.35;;;17.10;71.60;;;;;;5103146;27;37695;-57
2022/09/04 02:14:35;;;;;;;3.30;1.27;;;17.00;71.80;;;;;;5101643;27;36598;-57
2022/09/04 02:17:10;;;;;;;3.90;1.50;;;17.10;72.20;;;;;;5102082;27;36799;-57
2022/09/04 02:19:49;;;;;;;6.47;1.88;;;17.10;72.40;;;;;;5104736;27;36442;-57
2022/09/04 02:22:27;;;;;;;5.78;1.63;;;17.00;72.20;;;;;;5105645;27;37591;-57
2022/09/04 02:25:05;;;;;;;4.63;1.60;;;16.90;72.10;;;;;;5104043;27;38825;-57
2022/09/04 02:27:40;;;;;;;5.60;2.05;;;16.90;72.60;;;;;;5104120;27;37206;-57
2022/09/04 02:30:12;;;;;;;5.78;2.50;;;16.90;72.80;;;;;;5101837;27;36765;-57
2022/09/04 02:32:46;;;;;;;10.40;2.00;;;16.80;73.10;;;;;;5102909;27;36245;-57
2022/09/04 02:35:21;;;;;;;6.15;2.08;;;16.80;73.30;;;;;;5102611;27;37620;-57
2022/09/04 02:38:03;;;;;;;9.77;2.20;;;16.80;73.70;;;;;;5102246;27;37811;-57
2022/09/04 02:40:39;;;;;;;5.80;2.38;;;16.80;73.90;;;;;;5102883;27;36368;-57
2022/09/04 02:43:23;;;;;;;5.95;2.05;;;16.80;73.90;;;;;;5101898;27;36426;-57
2022/09/04 02:46:00;;;;;;;4.95;1.98;;;16.70;74.20;;;;;;5102273;27;36667;-57
2022/09/04 02:48:39;;;;;;;4.05;1.67;;;16.80;74.20;;;;;;5102543;27;37177;-57
2022/09/04 02:51:19;;;;;;;6.53;1.60;;;16.80;74.20;;;;;;5106635;27;36606;-57
2022/09/04 02:53:56;;;;;;;4.18;1.60;;;16.70;74.10;;;;;;5106440;27;38218;-57
2022/09/04 02:56:33;;;;;;;4.85;1.63;;;16.70;74.30;;;;;;5105915;27;36594;-57
2022/09/04 02:59:17;;;;;;;4.22;1.92;;;16.70;74.30;;;;;;5106113;27;39153;-57
2022/09/04 03:01:52;;;;;;;3.83;1.75;;;16.70;74.60;;;;;;5108104;27;35552;-57
2022/09/04 03:04:26;;;;;;;4.15;1.95;;;16.70;74.70;;;;;;5108636;27;37429;-57
2022/09/04 03:06:58;;;;;;;4.78;1.55;;;16.70;75.00;;;;;;5106846;27;36230;-57
2022/09/04 03:09:32;;;;;;;7.35;1.83;;;16.70;75.20;;;;;;5107809;27;38210;-57
2022/09/04 03:12:06;;;;;;;6.35;1.70;;;16.70;75.50;;;;;;5107993;27;35333;-57
2022/09/04 03:14:35;;;;;;;;;;;16.70;75.80;;;;;;5106790;27;38539;-57
2022/09/04 03:17:12;;;;;;;3.40;1.65;;;16.60;76.40;;;;;;5106170;27;39393;-57
2022/09/04 03:19:47;;;;;;;5.55;1.85;;;16.60;76.10;;;;;;5106096;27;37851;-57
2022/09/04 03:22:19;;;;;;;3.28;1.38;;;16.60;76.40;;;;;;5108520;27;36693;-57
2022/09/04 03:25:06;;;;;;;6.18;1.83;;;16.50;76.80;;;;;;5107326;27;36383;-57
2022/09/04 03:27:34;;;;;;;5.75;1.50;;;16.50;77.50;;;;;;5107639;27;36614;-57
2022/09/04 03:30:06;;;;;;;4.65;1.67;;;16.50;77.40;;;;;;5107433;27;38770;-56
2022/09/04 03:32:42;;;;;;;4.00;1.40;;;16.50;77.60;;;;;;5107386;27;37107;-56
2022/09/04 03:35:20;;;;;;;10.30;1.98;;;16.40;78.10;;;;;;5107429;27;37573;-57
2022/09/04 03:38:17;;;;;;;3.13;1.50;;;16.40;77.80;;;;;;5105649;27;38114;-57
2022/09/04 03:40:53;;;;;;;6.95;1.80;;;16.40;78.20;;;;;;5107547;27;38996;-57
2022/09/04 03:43:35;;;;;;;6.47;2.00;;;16.40;78.50;;;;;;5107214;27;36723;-57
2022/09/04 03:46:14;;;;;;;7.15;1.85;;;16.40;78.60;;;;;;5107597;27;36053;-57
2022/09/04 03:48:58;;;;;;;5.30;1.48;;;16.40;78.40;;;;;;5107636;27;37618;-57
2022/09/04 03:51:35;;;;;;;5.07;1.50;;;16.40;78.60;;;;;;5106688;27;37351;-57
2022/09/04 03:54:24;;;;;;;5.40;1.80;;;16.50;78.70;;;;;;5107315;27;37746;-57
2022/09/04 03:57:18;;;;;;;4.32;1.42;;;16.40;78.90;;;;;;5106795;27;37572;-57
2022/09/04 04:00:09;;;;;;;5.13;2.15;;;16.40;79.40;;;;;;5106071;27;41025;-57
2022/09/04 04:03:00;;;;;;;5.20;2.47;;;16.40;79.10;;;;;;5106109;27;35592;-57
2022/09/04 04:05:47;;;;;;;6.25;2.25;;;16.30;78.80;;;;;;5106868;27;36696;-57
2022/09/04 04:08:33;;;;;;;4.75;1.77;;;16.30;79.20;;;;;;5107966;27;37451;-57
2022/09/04 04:11:17;;;;;;;4.43;1.90;;;16.30;79.40;;;;;;5107354;27;37699;-57
2022/09/04 04:14:06;;;;;;;7.15;1.90;;;16.30;79.60;;;;;;5106368;27;38393;-57
2022/09/04 04:16:50;;;;;;;6.20;2.35;;;16.30;79.90;;;;;;5107153;27;36548;-57
2022/09/04 04:19:26;;;;;;;;;;;16.30;79.80;;;;;;5106326;27;37726;-57
2022/09/04 04:22:11;;;;;;;3.95;1.77;;;16.30;80.30;;;;;;5106357;27;38264;-57
2022/09/04 04:24:56;;;;;;;5.55;1.83;;;16.30;79.70;;;;;;5106386;27;37512;-57
2022/09/04 04:27:46;;;;;;;10.07;2.90;;;16.30;80.00;;;;;;5105953;27;36773;-57
2022/09/04 04:30:15;;;;;;;9.15;2.13;;;16.30;80.10;;;;;;5105908;27;40116;-57
2022/09/04 04:33:16;;;;;;;5.78;1.92;;;16.30;80.00;;;;;;5105820;27;37482;-57
2022/09/04 04:35:54;;;;;;;4.93;2.00;;;16.30;81.10;;;;;;5070146;27;36843;-57
2022/09/04 04:38:39;;;;;;;4.93;1.67;;;16.30;81.30;;;;;;5105158;27;37002;-57
2022/09/04 04:41:26;;;;;;;8.27;1.98;;;16.30;82.10;;;;;;5104071;27;38498;-57
2022/09/04 04:44:11;;;;;;;5.97;1.85;;;16.30;82.10;;;;;;5106538;27;37132;-57
2022/09/04 04:46:53;;;;;;;6.18;2.10;;;16.30;82.60;;;;;;5106692;27;37437;-57
2022/09/04 04:49:41;;;;;;;3.83;1.85;;;16.20;82.30;;;;;;5106130;27;37909;-57
2022/09/04 04:52:26;;;;;;;4.57;1.73;;;16.30;82.30;;;;;;5106536;27;38698;-57
2022/09/04 04:55:05;;;;;;;6.60;2.08;;;16.30;82.50;;;;;;5104471;27;36734;-57
2022/09/04 04:57:41;;;;;;;4.85;2.20;;;16.30;83.00;;;;;;5106399;27;37538;-57
2022/09/04 05:00:14;;;;;;;6.95;1.98;;;16.20;83.10;;;;;;5106395;27;35519;-57
2022/09/04 05:02:50;;;;;;;7.68;2.08;;;16.20;83.10;;;;;;5106529;27;38467;-57
2022/09/04 05:05:25;;;;;;;14.85;3.22;;;16.20;83.20;;;;;;5106529;27;38319;-57
2022/09/04 05:08:02;;;;;;;11.38;2.30;;;16.20;83.30;;;;;;5104976;27;38579;-57
2022/09/04 05:10:39;;;;;;;4.72;1.80;;;16.10;83.50;;;;;;5106971;27;36469;-56
2022/09/04 05:13:16;;;;;;;5.50;2.20;;;16.10;84.10;;;;;;5105850;27;37583;-57
2022/09/04 05:15:48;;;;;;;5.57;1.85;;;16.00;84.40;;;;;;5105723;27;38229;-57
2022/09/04 05:18:22;;;;;;;5.32;2.08;;;16.10;84.80;;;;;;5106282;27;36145;-57
2022/09/04 05:20:53;;;;;;;;;;;16.00;85.10;;;;;;5106152;27;36107;-57
2022/09/04 05:23:32;;;;;;;7.07;2.17;;;16.00;86.40;;;;;;5103904;27;37844;-56
2022/09/04 05:26:11;;;;;;;7.65;1.80;;;16.00;85.70;;;;;;5105547;27;37670;-56
2022/09/04 05:28:50;;;;;;;4.97;2.15;;;16.10;86.20;;;;;;5106559;27;37606;-56
2022/09/04 05:31:35;;;;;;;8.82;2.50;;;16.10;86.70;;;;;;5105930;27;37185;-57
2022/09/04 05:34:08;;;;;;;6.13;1.98;;;16.20;86.80;;;;;;5106124;27;37641;-56
2022/09/04 05:36:46;;;;;;;6.45;2.25;;;16.30;86.10;;;;;;5105556;27;37813;-57
2022/09/04 05:39:23;;;;;;;5.82;1.95;;;16.50;85.80;;;;;;5104458;27;36222;-56
2022/09/04 05:42:02;;;;;;;5.85;2.03;;;16.70;85.10;;;;;;5106255;27;37412;-57
2022/09/04 05:44:39;;;;;;;5.55;2.00;;;17.00;84.00;;;;;;5105441;27;38348;-57
2022/09/04 05:47:16;;;;;;;6.68;1.80;;;17.10;83.30;;;;;;5104893;27;37923;-56
2022/09/04 05:49:59;;;;;;;6.07;1.95;;;17.20;83.20;;;;;;5104562;27;37068;-57
2022/09/04 05:52:39;;;;;;;4.10;1.70;;;17.20;83.20;;;;;;5105174;27;36514;-57
2022/09/04 05:55:31;;;;;;;8.13;1.73;;;17.10;83.40;;;;;;5105157;27;37323;-56
2022/09/04 05:58:21;;;;;;;3.88;1.75;;;17.10;84.00;;;;;;5086649;27;37703;-57
2022/09/04 06:00:59;;;;;;;4.95;1.92;;;17.10;84.40;;;;;;5105023;27;38806;-57
2022/09/04 06:03:47;;;;;;;5.78;1.98;;;17.10;84.00;;;;;;5105646;27;36625;-57
2022/09/04 06:06:22;;;;;;;6.20;1.85;;;17.10;83.80;;;;;;5106265;27;38290;-57
2022/09/04 06:09:21;;;;;;;4.78;1.90;;;17.10;83.60;;;;;;5104605;27;36634;-56
2022/09/04 06:12:05;;;;;;;4.40;1.75;;;17.10;83.50;;;;;;5103591;27;37374;-57
2022/09/04 06:14:53;;;;;;;5.07;1.77;;;17.10;83.30;;;;;;5105288;27;35213;-57
2022/09/04 06:17:32;;;;;;;6.18;2.13;;;17.10;83.40;;;;;;5103805;27;37511;-57
2022/09/04 06:20:17;;;;;;;5.95;2.00;;;17.10;83.80;;;;;;5102918;27;36422;-57
2022/09/04 06:23:13;;;;;;;5.82;2.20;;;17.10;82.80;;;;;;5102207;27;37242;-57
2022/09/04 06:26:02;;;;;;;6.53;1.92;;;17.10;82.90;;;;;;5103532;27;36551;-57
2022/09/04 06:29:00;;;;;;;6.68;2.05;;;17.10;82.70;;;;;;5099537;27;37788;-57
2022/09/04 06:31:59;;;;;;;5.50;2.60;;;17.10;83.00;;;;;;5102551;27;36706;-57
2022/09/04 06:34:42;;;;;;;7.80;2.10;;;17.20;83.00;;;;;;5103859;27;38038;-57
2022/09/04 06:37:19;;;;;;;8.85;2.35;;;17.20;82.60;;;;;;5101945;27;36447;-57
2022/09/04 06:40:05;;;;;;;4.60;1.75;;;17.20;82.20;;;;;;5103400;27;37951;-57
2022/09/04 06:42:55;;;;;;;5.63;2.13;;;17.20;82.20;;;;;;5103519;27;38361;-57
2022/09/04 06:45:35;;;;;;;3.88;2.00;;;17.30;83.10;;;;;;5104549;27;36110;-57
2022/09/04 06:48:13;;;;;;;4.95;1.88;;;17.30;82.90;;;;;;5103386;27;36718;-57
2022/09/04 06:50:52;;;;;;;8.30;2.05;;;17.30;82.90;;;;;;5102966;27;37633;-58
2022/09/04 06:53:34;;;;;;;5.07;2.10;;;17.40;82.20;;;;;;5104821;27;36871;-58
2022/09/04 06:56:23;;;;;;;6.00;1.85;;;17.40;82.50;;;;;;5105494;27;40391;-58
2022/09/04 06:59:21;;;;;;;6.80;2.10;;;17.40;81.90;;;;;;5104612;27;37795;-59
2022/09/04 07:01:59;;;;;;;5.82;2.30;;;17.50;81.80;;;;;;5106725;27;38727;-59
2022/09/04 07:04:48;;;;;;;6.03;2.22;;;17.50;81.00;;;;;;5100708;27;37807;-58
2022/09/04 07:07:25;;;;;;;4.65;1.98;;;17.50;81.20;;;;;;5102568;27;36220;-59
2022/09/04 07:09:56;;;;;;;4.72;2.10;;;17.50;81.60;;;;;;5104145;27;35356;-58
2022/09/04 07:12:58;;;;;;;9.13;3.25;;;17.60;81.60;;;;;;5103664;27;37798;-58
2022/09/04 07:15:51;;;;;;;4.20;2.10;;;17.60;80.80;;;;;;5101101;27;39092;-59
2022/09/04 07:18:35;;;;;;;5.80;2.22;;;17.60;81.00;;;;;;5104703;27;37398;-59
2022/09/04 07:21:13;;;;;;;5.80;2.30;;;17.70;80.90;;;;;;5103896;27;36112;-59
2022/09/04 07:23:48;;;;;;;4.50;2.10;;;17.70;80.50;;;;;;5103568;27;38126;-59
2022/09/04 07:26:27;;;;;;;3.92;1.98;;;17.80;80.50;;;;;;5104443;27;38366;-59
2022/09/04 07:29:14;;;;;;;5.00;2.17;;;17.80;81.10;;;;;;5104222;27;37163;-58
2022/09/04 07:31:46;;;;;;;5.78;2.20;;;17.90;80.70;;;;;;5104117;27;37559;-59
2022/09/04 07:34:21;;;;;;;6.15;2.08;;;17.90;80.20;;;;;;5105042;27;36232;-59
2022/09/04 07:36:56;;;;;;;6.75;2.20;;;18.00;80.40;;;;;;5107287;27;36602;-58
2022/09/04 07:39:31;;;;;;;6.18;2.70;;;18.00;80.60;;;;;;5110636;27;37646;-60
2022/09/04 07:42:05;;;;;;;6.00;2.47;;;18.10;80.70;;;;;;5109186;27;36609;-59
2022/09/04 07:44:39;;;;;;;5.40;2.20;;;18.10;80.40;;;;;;5110413;27;36356;-60
2022/09/04 07:47:13;;;;;;;5.55;2.22;;;18.20;80.20;;;;;;5108953;27;37899;-59
2022/09/04 07:49:52;;;;;;;7.57;2.85;;;18.20;80.90;;;;;;5109326;27;39120;-59
2022/09/04 07:52:35;;;;;;;4.20;2.30;;;18.30;80.80;;;;;;5109984;27;36536;-59
2022/09/04 07:55:14;;;;;;;7.90;2.13;;;18.30;80.80;;;;;;5109288;27;37905;-59
2022/09/04 07:58:19;;;;;;;6.50;1.95;;;18.40;80.90;;;;;;5110600;27;38257;-59
2022/09/04 08:01:00;;;;;;;4.53;2.03;;;18.40;81.30;;;;;;5109742;27;38103;-59
2022/09/04 08:03:42;;;;;;;4.97;2.15;;;18.50;80.90;;;;;;5108367;27;36842;-59
2022/09/04 08:06:16;;;;;;;4.13;2.03;;;18.60;80.50;;;;;;5110898;27;37339;-59
2022/09/04 08:09:24;;;;;;;6.13;2.38;;;18.60;80.50;;;;;;5109670;27;37966;-59
2022/09/04 08:12:21;;;;;;;6.65;2.47;;;18.70;80.40;;;;;;5045615;28;37794;-59
2022/09/04 08:14:53;;;;;;;6.60;2.22;;;18.80;80.80;;;;;;5045758;28;37064;-59
2022/09/04 08:17:41;;;;;;;5.40;2.00;;;18.80;80.20;;;;;;5088119;27;37205;-59
2022/09/04 08:20:24;;;;;;;5.55;2.00;;;18.90;80.70;;;;;;5108394;27;37932;-59
2022/09/04 08:23:00;;;;;;;4.60;1.95;;;19.00;81.20;;;;;;5108046;27;39561;-59
2022/09/04 08:25:33;;;;;;;5.20;1.95;;;19.10;80.40;;;;;;5108620;27;36757;-60
2022/09/04 08:28:22;;;;;;;4.63;1.83;;;19.30;80.30;;;;;;5107820;27;38006;-59
2022/09/04 08:31:00;;;;;;;3.85;1.80;;;19.30;80.30;;;;;;5108381;27;39162;-59
2022/09/04 08:33:47;;;;;;;5.45;2.53;;;19.40;79.50;;;;;;5108867;27;37372;-58
2022/09/04 08:36:23;;;;;;;6.50;1.88;;;19.50;79.50;;;;;;5109164;27;36829;-59
2022/09/04 08:39:07;;;;;;;5.72;1.70;;;19.60;79.30;;;;;;5108748;27;37240;-59
2022/09/04 08:41:53;;;;;;;;;;;19.70;79.20;;;;;;5108672;27;37996;-60
2022/09/04 08:44:50;;;;;;;4.60;2.45;;;19.80;78.40;;;;;;5109479;27;36996;-60
2022/09/04 08:47:52;;;;;;;4.50;1.67;;;19.90;78.50;;;;;;5109267;27;37138;-59
2022/09/04 08:50:40;;;;;;;10.00;2.42;;;20.00;77.90;;;;;;5108577;27;37610;-59
2022/09/04 08:53:35;;;;;;;5.15;2.00;;;20.20;78.00;;;;;;5107644;27;37509;-59
2022/09/04 08:56:19;;;;;;;5.80;1.73;;;20.30;77.40;;;;;;5109318;27;37576;-59
2022/09/04 08:59:22;;;;;;;6.70;2.10;;;20.40;76.80;;;;;;5107815;27;36394;-59
2022/09/04 09:02:20;;;;;;;5.85;1.80;;;20.60;77.00;;;;;;5104952;27;37720;-60
2022/09/04 09:05:40;;;;;;;3.40;1.65;;;20.70;76.10;;;;;;5105704;27;38045;-59
2022/09/04 09:08:24;;;;;;;3.85;1.52;;;20.80;76.80;;;;;;5043651;28;38088;-60
2022/09/04 09:11:19;;;;;;;5.55;1.98;;;21.00;76.10;;;;;;5041984;28;36016;-60
2022/09/04 09:14:24;;;;;;;4.00;1.65;;;21.00;75.00;;;;;;5098438;27;37473;-60
2022/09/04 09:17:11;;;;;;;4.35;1.83;;;21.10;75.90;;;;;;5107083;27;37674;-60
2022/09/04 09:19:46;;;;;;;5.10;1.75;;;21.20;75.20;;;;;;5106035;27;38380;-60
2022/09/04 09:22:36;;;;;;;3.17;1.55;;;21.20;75.20;;;;;;5107522;27;35267;-60
2022/09/04 09:25:15;;;;;;;19.02;2.63;;;21.30;74.90;;;;;;5105655;27;39164;-61
2022/09/04 09:28:12;;;;;;;18.83;2.67;;;21.40;74.40;;;;;;5105808;27;37619;-59
2022/09/04 09:31:04;;;;;;;10.05;2.13;;;21.50;75.30;;;;;;5074012;27;36419;-60
2022/09/04 09:34:00;;;;;;;15.90;3.00;;;21.60;73.90;;;;;;5080426;27;36623;-60
2022/09/04 09:37:02;;;;;;;6.40;2.10;;;21.60;73.40;;;;;;5107862;27;38196;-60
2022/09/04 09:39:44;;;;;;;4.63;1.60;;;21.70;73.40;;;;;;5106814;27;37887;-60
2022/09/04 09:42:49;;;;;;;7.30;2.08;;;21.80;73.10;;;;;;5107992;27;37275;-60
2022/09/04 09:45:35;;;;;;;4.80;1.90;;;22.00;73.40;;;;;;5107945;27;36484;-59
2022/09/04 09:48:33;;;;;;;4.45;1.75;;;22.00;72.70;;;;;;5106964;27;36436;-60
2022/09/04 09:51:40;;;;;;;4.55;1.75;;;22.00;72.30;;;;;;5106449;27;39020;-60
2022/09/04 09:54:44;;;;;;;6.90;1.60;;;22.10;72.40;;;;;;5106572;27;38897;-60
2022/09/04 09:57:26;;;;;;;4.07;1.33;;;22.20;71.80;;;;;;5095254;27;35519;-60
2022/09/04 10:00:24;;;;;;;5.80;1.80;;;22.30;71.90;;;;;;5104564;27;38507;-60
2022/09/04 10:03:18;;;;;;;20.85;2.60;;;22.40;70.70;;;;;;5072408;27;37571;-60
2022/09/04 10:06:12;;;;;;;6.55;1.65;;;22.60;69.40;;;;;;5106151;27;37066;-60
2022/09/04 10:09:13;;;;;;;4.72;1.48;;;22.70;69.30;;;;;;5105404;27;37047;-60
2022/09/04 10:12:16;;;;;;;18.20;2.60;;;22.70;68.50;;;;;;5104596;27;37004;-60
2022/09/04 10:15:16;;;;;;;6.75;1.77;;;22.80;67.60;;;;;;5104835;27;38280;-60
2022/09/04 10:18:21;;;;;;;6.95;1.65;;;22.90;68.00;;;;;;5105465;27;38672;-60
2022/09/04 10:21:19;;;;;;;3.22;1.38;;;23.10;66.60;;;;;;5105623;27;35287;-60
2022/09/04 10:24:20;;;;;;;31.20;2.63;;;23.20;66.40;;;;;;5099670;27;38760;-60
2022/09/04 10:27:03;;;;;;;11.30;2.38;;;23.30;66.30;;;;;;5107005;27;37902;-61
2022/09/04 10:29:48;;;;;;;11.07;1.80;;;23.40;65.10;;;;;;5103908;27;36418;-60
2022/09/04 10:32:44;;;;;;;3.42;1.45;;;23.50;65.30;;;;;;5106287;27;36583;-60
2022/09/04 10:35:21;;;;;;;36.15;3.28;;;23.60;64.10;;;;;;5105700;27;37582;-61
2022/09/04 10:38:11;;;;;;;5.40;1.77;;;23.70;64.80;;;;;;5103786;27;38532;-60
2022/09/04 10:40:47;;;;;;;5.00;1.58;;;23.60;63.60;;;;;;5104221;27;37546;-60
2022/09/04 10:43:38;;;;;;;6.00;1.45;;;23.70;63.00;;;;;;5104549;27;37373;-60
2022/09/04 10:46:10;;;;;;;5.07;1.50;;;23.70;62.90;;;;;;5105529;27;38730;-61
2022/09/04 10:49:14;;;;;;;4.40;1.33;;;23.80;62.80;;;;;;5106216;27;37516;-59
2022/09/04 10:52:05;;;;;;;15.38;1.77;;;23.80;61.00;;;;;;5104981;27;37423;-60
2022/09/04 10:55:01;;;;;;;21.38;2.40;;;23.80;61.50;;;;;;5106085;27;37524;-60
2022/09/04 10:58:20;;;;;;;29.05;2.63;;;23.90;61.10;;;;;;5104882;27;36817;-60
2022/09/04 11:01:05;;;;;;;3.88;1.40;;;23.90;62.20;;;;;;5061782;28;38435;-60
2022/09/04 11:03:58;;;;;;;5.78;1.42;;;23.90;61.30;;;;;;5059598;28;37691;-61
2022/09/04 11:06:56;;;;;;;8.73;1.50;;;24.00;60.70;;;;;;5094504;27;35389;-60
2022/09/04 11:09:46;;;;;;;4.60;1.33;;;24.10;61.60;;;;;;5106827;27;38197;-60
2022/09/04 11:12:33;;;;;;;7.45;1.88;;;24.20;60.90;;;;;;5107225;27;37575;-60
2022/09/04 11:15:37;;;;;;;23.08;2.20;;;24.20;60.60;;;;;;5110721;27;39268;-61
2022/09/04 11:18:29;;;;;;;6.38;1.40;;;24.30;61.70;;;;;;5110135;27;36367;-60
2022/09/04 11:21:38;;;;;;;24.58;2.85;;;24.30;60.70;;;;;;5074336;27;37668;-60
2022/09/04 11:24:58;;;;;;;9.43;1.60;;;24.50;60.30;;;;;;5109732;27;37242;-60
2022/09/04 11:28:02;;;;;;;2.40;1.13;;;24.50;60.00;;;;;;5107140;27;37026;-60
2022/09/04 11:30:47;;;;;;;31.75;3.22;;;24.60;59.60;;;;;;5098133;27;37481;-61
2022/09/04 11:33:49;;;;;;;8.30;1.70;;;24.60;59.10;;;;;;5110450;27;37400;-60
2022/09/04 11:36:39;;;;;;;6.32;1.38;;;24.70;59.90;;;;;;5105950;27;39059;-61
2022/09/04 11:39:46;;;;;;;10.13;2.45;;;24.70;58.60;;;;;;5099028;27;36033;-61
2022/09/04 11:42:34;;;;;;;6.32;1.50;;;24.70;58.80;;;;;;5105674;27;36710;-60
2022/09/04 11:45:37;;;;;;;5.20;1.27;;;24.60;58.80;;;;;;5108272;27;35564;-60
2022/09/04 11:48:40;;;;;;;5.80;1.40;;;24.60;58.70;;;;;;5107990;27;37797;-60
2022/09/04 11:51:49;;;;;;;3.97;1.40;;;24.60;58.80;;;;;;5107231;27;36091;-60
2022/09/04 11:54:39;;;;;;;6.35;1.50;;;24.50;58.60;;;;;;5107435;27;38294;-60
2022/09/04 11:57:15;;;;;;;5.35;1.45;;;24.50;58.10;;;;;;5107696;27;39050;-60
2022/09/04 12:00:11;;;;;;;3.22;1.30;;;24.60;59.30;;;;;;5106733;27;37864;-60
2022/09/04 12:03:03;;;;;;;4.40;1.35;;;24.60;57.80;;;;;;5108229;27;37406;-60
2022/09/04 12:05:49;;;;;;;5.32;1.30;;;24.70;58.00;;;;;;5106574;27;36606;-61
2022/09/04 12:08:39;;;;;;;4.57;1.50;;;24.70;57.50;;;;;;5107372;27;37515;-59
2022/09/04 12:11:31;;;;;;;4.55;1.50;;;24.70;58.60;;;;;;5105090;27;39456;-60
2022/09/04 12:14:16;;;;;;;4.75;1.38;;;24.70;58.70;;;;;;5108521;27;37317;-59
2022/09/04 12:17:22;;;;;;;5.10;1.13;;;24.60;57.70;;;;;;5108059;27;37453;-60
2022/09/04 12:20:30;;;;;;;2.05;1.02;;;24.60;58.60;;;;;;5107698;27;38905;-60
2022/09/04 12:23:52;;;;;;;3.10;1.15;;;24.60;59.20;;;;;;5106697;27;36665;-60
2022/09/04 12:26:58;;;;;;;3.05;1.40;;;24.60;58.90;;;;;;5108178;27;39789;-59
2022/09/04 12:29:55;;;;;;;4.32;1.80;;;24.50;58.80;;;;;;5080668;27;37266;-60
2022/09/04 12:33:04;;;;;;;3.85;1.50;;;24.50;59.20;;;;;;5107158;27;37692;-60
2022/09/04 12:36:21;;;;;;;3.75;1.30;;;24.50;59.60;;;;;;5107289;27;39187;-61
2022/09/04 12:39:29;;;;;;;3.25;1.20;;;24.40;59.40;;;;;;5108507;27;37415;-60
2022/09/04 12:42:03;;;;;;;5.85;1.33;;;24.40;60.20;;;;;;5107428;27;36524;-60
2022/09/04 12:44:42;;;;;;;4.63;1.33;;;24.40;59.30;;;;;;5108211;27;37052;-60
2022/09/04 12:47:26;;;;;;;5.15;1.30;;;24.50;59.10;;;;;;5108491;27;38050;-59
2022/09/04 12:50:18;;;;;;;4.18;1.20;;;24.50;59.40;;;;;;5105289;27;37290;-59
2022/09/04 12:53:24;;;;;;;2.85;1.10;;;24.50;59.00;;;;;;5106437;27;36603;-59
2022/09/04 12:56:01;;;;;;;3.28;1.25;;;24.50;58.70;;;;;;5097332;27;37473;-60
2022/09/04 12:58:46;;;;;;;3.28;1.52;;;24.50;58.90;;;;;;5107520;27;37906;-59
2022/09/04 13:01:22;;;;;;;2.55;1.30;;;24.50;58.50;;;;;;5106867;27;36166;-60
2022/09/04 13:03:58;;;;;;;7.82;1.50;;;24.40;58.90;;;;;;5107568;27;36615;-61
2022/09/04 13:06:34;;;;;;;3.65;1.20;;;24.40;59.00;;;;;;5107036;27;38277;-60
2022/09/04 13:09:17;;;;;;;3.72;1.55;;;24.40;59.00;;;;;;5108406;27;37739;-60
2022/09/04 13:11:58;;;;;;;4.60;1.52;;;24.40;59.20;;;;;;5106881;27;38200;-61
2022/09/04 13:14:41;;;;;;;3.75;1.10;;;24.30;59.20;;;;;;5107613;27;37199;-60
2022/09/04 13:17:18;;;;;;;4.18;1.33;;;24.30;58.90;;;;;;5106769;27;37494;-61
2022/09/04 13:20:00;;;;;;;2.45;1.40;;;24.20;59.20;;;;;;5106569;27;37960;-60
2022/09/04 13:22:35;;;;;;;3.08;1.30;;;24.30;59.20;;;;;;5105021;27;36395;-60
2022/09/04 13:25:12;;;;;;;5.15;1.27;;;24.30;59.50;;;;;;5108093;27;36648;-60
2022/09/04 13:27:51;;;;;;;3.40;1.27;;;24.20;60.10;;;;;;5108053;27;36197;-60
2022/09/04 13:30:23;;;;;;;4.38;1.38;;;24.30;59.80;;;;;;5107890;27;37607;-60
2022/09/04 13:33:24;;;;;;;4.32;1.58;;;24.30;59.70;;;;;;5106236;27;38364;-60
2022/09/04 13:36:15;;;;;;;3.17;1.10;;;24.20;59.80;;;;;;5043638;28;36676;-60
2022/09/04 13:39:11;;;;;;;4.00;1.27;;;24.20;59.80;;;;;;5104100;27;37151;-60
2022/09/04 13:42:07;;;;;;;4.00;1.20;;;24.20;60.00;;;;;;5095851;27;36751;-60
2022/09/04 13:44:58;;;;;;;5.95;1.17;;;24.20;60.50;;;;;;5107708;27;37251;-60
2022/09/04 13:47:26;;;;;;;7.00;1.40;;;24.10;61.00;;;;;;5106839;27;37824;-59
2022/09/04 13:50:01;;;;;;;4.60;1.17;;;24.10;60.70;;;;;;5107071;27;37183;-60
2022/09/04 13:52:35;;;;;;;2.88;1.30;;;24.10;60.80;;;;;;5106678;27;38213;-59
2022/09/04 13:55:08;;;;;;;2.30;1.08;;;24.10;60.80;;;;;;5106873;27;37580;-60
2022/09/04 13:57:43;;;;;;;4.82;1.27;;;24.10;61.10;;;;;;5107168;27;36724;-59
2022/09/04 14:00:11;;;;;;;2.70;1.33;;;24.10;61.30;;;;;;5105663;27;40653;-59
2022/09/04 14:02:40;;;;;;;4.75;1.40;;;24.10;61.70;;;;;;5106342;27;37511;-60
2022/09/04 14:05:13;;;;;;;2.63;1.30;;;24.10;61.90;;;;;;5107169;27;36114;-60
2022/09/04 14:07:43;;;;;;;4.85;1.73;;;24.10;61.60;;;;;;5107432;27;36483;-60
2022/09/04 14:10:16;;;;;;;2.95;1.42;;;24.10;60.90;;;;;;5106283;27;36552;-60
2022/09/04 14:13:00;;;;;;;2.70;1.10;;;24.00;61.10;;;;;;5106031;27;38797;-60
2022/09/04 14:15:41;;;;;;;2.83;1.08;;;24.00;62.10;;;;;;5104417;27;38622;-59
2022/09/04 14:18:24;;;;;;;6.50;1.55;;;24.00;61.20;;;;;;5105245;27;37745;-60